sensor_id;sensor_type;location;lat;lon;timestamp;P1;durP1;ratioP1;P2;durP2;ratioP2
64029;SDS011;50277;52.064;4.492;2023-04-04T00:00:21;5.70;;;2.60;;
64029;SDS011;50277;52.064;4.492;2023-04-04T00:02:47;5.63;;;2.70;;
64029;SDS011;50277;52.064;4.492;2023-04-04T00:05:12;5.13;;;2.50;;
64029;SDS011;50277;52.064;4.492;2023-04-04T00:07:38;4.95;;;2.28;;
64029;SDS011;50277;52.064;4.492;2023-04-04T00:10:03;4.40;;;2.38;;
64029;SDS011;50277;52.064;4.492;2023-04-04T00:12:29;3.47;;;2.22;;
64029;SDS011;50277;52.064;4.492;2023-04-04T00:14:55;3.63;;;2.35;;
64029;SDS011;50277;52.064;4.492;2023-04-04T00:17:21;4.78;;;2.33;;
64029;SDS011;50277;52.064;4.492;2023-04-04T00:19:46;5.00;;;2.42;;
64029;SDS011;50277;52.064;4.492;2023-04-04T00:22:12;7.53;;;2.78;;
64029;SDS011;50277;52.064;4.492;2023-04-04T00:24:40;3.47;;;2.17;;
64029;SDS011;50277;52.064;4.492;2023-04-04T00:27:05;3.97;;;2.45;;
64029;SDS011;50277;52.064;4.492;2023-04-04T00:29:30;7.63;;;2.65;;
64029;SDS011;50277;52.064;4.492;2023-04-04T00:31:58;3.72;;;2.08;;
64029;SDS011;50277;52.064;4.492;2023-04-04T00:34:23;5.13;;;2.95;;
64029;SDS011;50277;52.064;4.492;2023-04-04T00:36:49;4.80;;;2.35;;
64029;SDS011;50277;52.064;4.492;2023-04-04T00:39:14;7.53;;;2.75;;
64029;SDS011;50277;52.064;4.492;2023-04-04T00:41:40;2.83;;;2.40;;
64029;SDS011;50277;52.064;4.492;2023-04-04T00:44:06;2.88;;;2.17;;
64029;SDS011;50277;52.064;4.492;2023-04-04T00:46:32;3.95;;;2.17;;
64029;SDS011;50277;52.064;4.492;2023-04-04T00:48:57;3.63;;;2.03;;
64029;SDS011;50277;52.064;4.492;2023-04-04T00:51:23;3.70;;;2.15;;
64029;SDS011;50277;52.064;4.492;2023-04-04T00:53:48;4.95;;;2.45;;
64029;SDS011;50277;52.064;4.492;2023-04-04T00:56:14;2.90;;;2.42;;
64029;SDS011;50277;52.064;4.492;2023-04-04T00:58:40;3.85;;;2.70;;
64029;SDS011;50277;52.064;4.492;2023-04-04T01:01:06;3.90;;;2.40;;
64029;SDS011;50277;52.064;4.492;2023-04-04T01:03:32;4.32;;;2.47;;
64029;SDS011;50277;52.064;4.492;2023-04-04T01:05:57;4.57;;;2.47;;
64029;SDS011;50277;52.064;4.492;2023-04-04T01:08:23;5.28;;;2.78;;
64029;SDS011;50277;52.064;4.492;2023-04-04T01:10:50;5.50;;;2.95;;
64029;SDS011;50277;52.064;4.492;2023-04-04T01:13:15;4.07;;;2.75;;
64029;SDS011;50277;52.064;4.492;2023-04-04T01:15:41;3.58;;;2.38;;
64029;SDS011;50277;52.064;4.492;2023-04-04T01:18:07;3.78;;;2.72;;
64029;SDS011;50277;52.064;4.492;2023-04-04T01:20:34;4.57;;;2.50;;
64029;SDS011;50277;52.064;4.492;2023-04-04T01:23:01;2.45;;;2.10;;
64029;SDS011;50277;52.064;4.492;2023-04-04T01:25:30;5.22;;;2.60;;
64029;SDS011;50277;52.064;4.492;2023-04-04T01:27:56;7.60;;;3.15;;
64029;SDS011;50277;52.064;4.492;2023-04-04T01:30:22;4.82;;;2.60;;
64029;SDS011;50277;52.064;4.492;2023-04-04T01:38:29;2.45;;;2.25;;
64029;SDS011;50277;52.064;4.492;2023-04-04T01:41:00;4.75;;;2.72;;
64029;SDS011;50277;52.064;4.492;2023-04-04T01:43:29;5.65;;;2.65;;
64029;SDS011;50277;52.064;4.492;2023-04-04T01:45:54;3.45;;;2.58;;
64029;SDS011;50277;52.064;4.492;2023-04-04T01:48:20;2.42;;;2.22;;
64029;SDS011;50277;52.064;4.492;2023-04-04T01:50:46;3.75;;;2.30;;
64029;SDS011;50277;52.064;4.492;2023-04-04T01:53:11;3.03;;;2.40;;
64029;SDS011;50277;52.064;4.492;2023-04-04T01:55:36;3.80;;;2.95;;
64029;SDS011;50277;52.064;4.492;2023-04-04T01:58:02;6.07;;;3.13;;
64029;SDS011;50277;52.064;4.492;2023-04-04T02:00:27;4.30;;;2.65;;
64029;SDS011;50277;52.064;4.492;2023-04-04T02:02:52;4.40;;;2.65;;
64029;SDS011;50277;52.064;4.492;2023-04-04T02:05:18;6.93;;;2.58;;
64029;SDS011;50277;52.064;4.492;2023-04-04T02:07:47;7.47;;;2.67;;
64029;SDS011;50277;52.064;4.492;2023-04-04T02:10:16;7.22;;;2.80;;
64029;SDS011;50277;52.064;4.492;2023-04-04T02:12:42;4.53;;;2.88;;
64029;SDS011;50277;52.064;4.492;2023-04-04T02:15:07;4.30;;;2.65;;
64029;SDS011;50277;52.064;4.492;2023-04-04T02:17:33;4.80;;;2.78;;
64029;SDS011;50277;52.064;4.492;2023-04-04T02:19:59;6.18;;;3.08;;
64029;SDS011;50277;52.064;4.492;2023-04-04T02:22:25;6.55;;;2.90;;
64029;SDS011;50277;52.064;4.492;2023-04-04T02:24:51;6.85;;;2.40;;
64029;SDS011;50277;52.064;4.492;2023-04-04T02:27:17;4.38;;;2.90;;
64029;SDS011;50277;52.064;4.492;2023-04-04T02:29:43;4.13;;;2.47;;
64029;SDS011;50277;52.064;4.492;2023-04-04T02:32:08;4.35;;;2.78;;
64029;SDS011;50277;52.064;4.492;2023-04-04T02:34:33;3.95;;;2.65;;
64029;SDS011;50277;52.064;4.492;2023-04-04T02:36:59;4.57;;;3.00;;
64029;SDS011;50277;52.064;4.492;2023-04-04T02:39:24;4.07;;;2.65;;
64029;SDS011;50277;52.064;4.492;2023-04-04T02:41:49;4.30;;;2.53;;
64029;SDS011;50277;52.064;4.492;2023-04-04T02:44:15;3.92;;;2.83;;
64029;SDS011;50277;52.064;4.492;2023-04-04T02:46:40;5.43;;;2.70;;
64029;SDS011;50277;52.064;4.492;2023-04-04T02:49:06;4.65;;;2.78;;
64029;SDS011;50277;52.064;4.492;2023-04-04T02:51:31;4.90;;;2.38;;
64029;SDS011;50277;52.064;4.492;2023-04-04T02:53:58;4.93;;;2.40;;
64029;SDS011;50277;52.064;4.492;2023-04-04T02:56:23;4.00;;;2.90;;
64029;SDS011;50277;52.064;4.492;2023-04-04T02:58:48;5.88;;;2.92;;
64029;SDS011;50277;52.064;4.492;2023-04-04T03:01:14;5.53;;;2.90;;
64029;SDS011;50277;52.064;4.492;2023-04-04T03:03:39;4.82;;;2.85;;
64029;SDS011;50277;52.064;4.492;2023-04-04T03:06:05;4.55;;;3.10;;
64029;SDS011;50277;52.064;4.492;2023-04-04T03:08:30;4.78;;;3.20;;
64029;SDS011;50277;52.064;4.492;2023-04-04T03:10:55;4.72;;;2.80;;
64029;SDS011;50277;52.064;4.492;2023-04-04T03:13:21;5.03;;;2.90;;
64029;SDS011;50277;52.064;4.492;2023-04-04T03:15:46;4.30;;;3.13;;
64029;SDS011;50277;52.064;4.492;2023-04-04T03:18:13;4.55;;;3.08;;
64029;SDS011;50277;52.064;4.492;2023-04-04T03:20:38;4.97;;;3.20;;
64029;SDS011;50277;52.064;4.492;2023-04-04T03:23:03;5.30;;;3.80;;
64029;SDS011;50277;52.064;4.492;2023-04-04T03:25:29;5.57;;;3.13;;
64029;SDS011;50277;52.064;4.492;2023-04-04T03:27:54;4.70;;;3.10;;
64029;SDS011;50277;52.064;4.492;2023-04-04T03:30:20;4.63;;;2.72;;
64029;SDS011;50277;52.064;4.492;2023-04-04T03:32:46;3.83;;;3.10;;
64029;SDS011;50277;52.064;4.492;2023-04-04T03:35:11;4.70;;;2.83;;
64029;SDS011;50277;52.064;4.492;2023-04-04T03:37:37;5.28;;;2.92;;
64029;SDS011;50277;52.064;4.492;2023-04-04T03:40:02;3.97;;;2.90;;
64029;SDS011;50277;52.064;4.492;2023-04-04T03:42:31;5.82;;;2.67;;
64029;SDS011;50277;52.064;4.492;2023-04-04T03:44:58;5.32;;;3.33;;
64029;SDS011;50277;52.064;4.492;2023-04-04T03:47:23;6.10;;;3.42;;
64029;SDS011;50277;52.064;4.492;2023-04-04T03:49:49;5.97;;;3.30;;
64029;SDS011;50277;52.064;4.492;2023-04-04T03:52:16;6.55;;;3.05;;
64029;SDS011;50277;52.064;4.492;2023-04-04T03:54:41;9.48;;;2.85;;
64029;SDS011;50277;52.064;4.492;2023-04-04T03:57:06;6.25;;;3.15;;
64029;SDS011;50277;52.064;4.492;2023-04-04T03:59:32;4.53;;;3.15;;
64029;SDS011;50277;52.064;4.492;2023-04-04T04:01:57;6.63;;;3.20;;
64029;SDS011;50277;52.064;4.492;2023-04-04T04:04:22;3.38;;;2.60;;
64029;SDS011;50277;52.064;4.492;2023-04-04T04:06:48;4.50;;;3.45;;
64029;SDS011;50277;52.064;4.492;2023-04-04T04:09:13;7.43;;;3.17;;
64029;SDS011;50277;52.064;4.492;2023-04-04T04:11:39;7.40;;;3.38;;
64029;SDS011;50277;52.064;4.492;2023-04-04T04:14:04;6.40;;;3.25;;
64029;SDS011;50277;52.064;4.492;2023-04-04T04:16:29;4.18;;;2.88;;
64029;SDS011;50277;52.064;4.492;2023-04-04T04:18:55;7.85;;;3.33;;
64029;SDS011;50277;52.064;4.492;2023-04-04T04:21:20;5.90;;;3.70;;
64029;SDS011;50277;52.064;4.492;2023-04-04T04:23:45;5.07;;;3.72;;
64029;SDS011;50277;52.064;4.492;2023-04-04T04:26:11;7.78;;;4.20;;
64029;SDS011;50277;52.064;4.492;2023-04-04T04:28:36;6.15;;;3.38;;
64029;SDS011;50277;52.064;4.492;2023-04-04T04:31:05;4.45;;;3.40;;
64029;SDS011;50277;52.064;4.492;2023-04-04T04:33:32;3.25;;;2.92;;
64029;SDS011;50277;52.064;4.492;2023-04-04T04:35:58;5.65;;;3.45;;
64029;SDS011;50277;52.064;4.492;2023-04-04T04:38:24;10.40;;;3.40;;
64029;SDS011;50277;52.064;4.492;2023-04-04T04:40:49;7.18;;;3.78;;
64029;SDS011;50277;52.064;4.492;2023-04-04T04:43:14;9.57;;;3.80;;
64029;SDS011;50277;52.064;4.492;2023-04-04T04:45:40;6.97;;;3.72;;
64029;SDS011;50277;52.064;4.492;2023-04-04T04:48:06;5.15;;;3.80;;
64029;SDS011;50277;52.064;4.492;2023-04-04T04:50:31;5.85;;;4.13;;
64029;SDS011;50277;52.064;4.492;2023-04-04T04:52:57;6.63;;;4.00;;
64029;SDS011;50277;52.064;4.492;2023-04-04T04:55:22;5.32;;;3.55;;
64029;SDS011;50277;52.064;4.492;2023-04-04T04:57:47;4.65;;;3.20;;
64029;SDS011;50277;52.064;4.492;2023-04-04T05:00:13;3.97;;;3.15;;
64029;SDS011;50277;52.064;4.492;2023-04-04T05:02:39;7.00;;;3.65;;
64029;SDS011;50277;52.064;4.492;2023-04-04T05:05:04;4.95;;;3.63;;
64029;SDS011;50277;52.064;4.492;2023-04-04T05:07:30;5.43;;;3.53;;
64029;SDS011;50277;52.064;4.492;2023-04-04T05:09:55;5.35;;;3.75;;
64029;SDS011;50277;52.064;4.492;2023-04-04T05:12:21;7.90;;;3.80;;
64029;SDS011;50277;52.064;4.492;2023-04-04T05:14:46;8.23;;;3.80;;
64029;SDS011;50277;52.064;4.492;2023-04-04T05:17:11;6.63;;;3.90;;
64029;SDS011;50277;52.064;4.492;2023-04-04T05:19:37;7.53;;;4.22;;
64029;SDS011;50277;52.064;4.492;2023-04-04T05:22:02;6.18;;;3.85;;
64029;SDS011;50277;52.064;4.492;2023-04-04T05:24:27;8.70;;;3.60;;
64029;SDS011;50277;52.064;4.492;2023-04-04T05:26:53;6.07;;;3.88;;
64029;SDS011;50277;52.064;4.492;2023-04-04T05:29:18;6.32;;;4.03;;
64029;SDS011;50277;52.064;4.492;2023-04-04T05:31:43;4.78;;;3.45;;
64029;SDS011;50277;52.064;4.492;2023-04-04T05:34:09;6.88;;;4.00;;
64029;SDS011;50277;52.064;4.492;2023-04-04T05:36:35;8.15;;;3.97;;
64029;SDS011;50277;52.064;4.492;2023-04-04T05:39:00;5.72;;;3.80;;
64029;SDS011;50277;52.064;4.492;2023-04-04T05:41:29;5.85;;;3.75;;
64029;SDS011;50277;52.064;4.492;2023-04-04T05:43:55;13.63;;;4.43;;
64029;SDS011;50277;52.064;4.492;2023-04-04T05:46:21;5.70;;;3.65;;
64029;SDS011;50277;52.064;4.492;2023-04-04T05:48:47;4.85;;;3.65;;
64029;SDS011;50277;52.064;4.492;2023-04-04T05:51:14;5.38;;;3.75;;
64029;SDS011;50277;52.064;4.492;2023-04-04T05:53:39;7.60;;;3.30;;
64029;SDS011;50277;52.064;4.492;2023-04-04T05:56:04;6.35;;;3.53;;
64029;SDS011;50277;52.064;4.492;2023-04-04T05:58:30;7.82;;;3.92;;
64029;SDS011;50277;52.064;4.492;2023-04-04T06:00:55;7.75;;;3.97;;
64029;SDS011;50277;52.064;4.492;2023-04-04T06:03:21;5.65;;;3.55;;
64029;SDS011;50277;52.064;4.492;2023-04-04T06:05:50;5.22;;;3.65;;
64029;SDS011;50277;52.064;4.492;2023-04-04T06:08:16;4.90;;;3.70;;
64029;SDS011;50277;52.064;4.492;2023-04-04T06:10:42;4.75;;;3.50;;
64029;SDS011;50277;52.064;4.492;2023-04-04T06:13:07;4.40;;;3.17;;
64029;SDS011;50277;52.064;4.492;2023-04-04T06:15:32;5.72;;;3.42;;
64029;SDS011;50277;52.064;4.492;2023-04-04T06:17:58;10.25;;;3.88;;
64029;SDS011;50277;52.064;4.492;2023-04-04T06:20:23;6.15;;;4.38;;
64029;SDS011;50277;52.064;4.492;2023-04-04T06:22:48;6.03;;;3.83;;
64029;SDS011;50277;52.064;4.492;2023-04-04T06:25:14;10.23;;;3.88;;
64029;SDS011;50277;52.064;4.492;2023-04-04T06:27:39;4.72;;;3.55;;
64029;SDS011;50277;52.064;4.492;2023-04-04T06:30:06;4.93;;;3.35;;
64029;SDS011;50277;52.064;4.492;2023-04-04T06:32:32;6.57;;;4.15;;
64029;SDS011;50277;52.064;4.492;2023-04-04T06:34:57;5.07;;;3.10;;
64029;SDS011;50277;52.064;4.492;2023-04-04T06:37:23;5.03;;;3.75;;
64029;SDS011;50277;52.064;4.492;2023-04-04T06:39:48;5.15;;;3.30;;
64029;SDS011;50277;52.064;4.492;2023-04-04T06:42:14;5.28;;;3.78;;
64029;SDS011;50277;52.064;4.492;2023-04-04T06:44:39;6.22;;;4.25;;
64029;SDS011;50277;52.064;4.492;2023-04-04T06:47:05;4.72;;;3.30;;
64029;SDS011;50277;52.064;4.492;2023-04-04T06:49:30;4.95;;;3.35;;
64029;SDS011;50277;52.064;4.492;2023-04-04T06:51:56;4.60;;;3.10;;
64029;SDS011;50277;52.064;4.492;2023-04-04T06:54:21;4.32;;;3.25;;
64029;SDS011;50277;52.064;4.492;2023-04-04T06:56:47;5.85;;;3.78;;
64029;SDS011;50277;52.064;4.492;2023-04-04T06:59:12;6.82;;;3.38;;
64029;SDS011;50277;52.064;4.492;2023-04-04T07:01:38;4.20;;;3.30;;
64029;SDS011;50277;52.064;4.492;2023-04-04T07:04:03;3.40;;;3.10;;
64029;SDS011;50277;52.064;4.492;2023-04-04T07:06:28;6.25;;;3.00;;
64029;SDS011;50277;52.064;4.492;2023-04-04T07:08:55;6.70;;;3.17;;
64029;SDS011;50277;52.064;4.492;2023-04-04T07:11:20;3.88;;;2.97;;
64029;SDS011;50277;52.064;4.492;2023-04-04T07:13:48;3.70;;;3.22;;
64029;SDS011;50277;52.064;4.492;2023-04-04T07:16:13;8.10;;;3.38;;
64029;SDS011;50277;52.064;4.492;2023-04-04T07:18:38;5.53;;;3.60;;
64029;SDS011;50277;52.064;4.492;2023-04-04T07:21:04;4.43;;;3.70;;
64029;SDS011;50277;52.064;4.492;2023-04-04T07:23:29;8.82;;;3.55;;
64029;SDS011;50277;52.064;4.492;2023-04-04T07:25:55;7.45;;;3.38;;
64029;SDS011;50277;52.064;4.492;2023-04-04T07:28:20;6.53;;;4.10;;
64029;SDS011;50277;52.064;4.492;2023-04-04T07:30:46;5.85;;;3.47;;
64029;SDS011;50277;52.064;4.492;2023-04-04T07:33:12;6.55;;;3.40;;
64029;SDS011;50277;52.064;4.492;2023-04-04T07:35:37;11.13;;;3.92;;
64029;SDS011;50277;52.064;4.492;2023-04-04T07:38:02;5.45;;;3.70;;
64029;SDS011;50277;52.064;4.492;2023-04-04T07:40:28;5.80;;;4.05;;
64029;SDS011;50277;52.064;4.492;2023-04-04T07:42:53;5.93;;;3.67;;
64029;SDS011;50277;52.064;4.492;2023-04-04T07:45:19;3.75;;;2.65;;
64029;SDS011;50277;52.064;4.492;2023-04-04T07:47:46;4.80;;;3.28;;
64029;SDS011;50277;52.064;4.492;2023-04-04T07:50:12;6.78;;;3.35;;
64029;SDS011;50277;52.064;4.492;2023-04-04T07:52:37;6.43;;;3.25;;
64029;SDS011;50277;52.064;4.492;2023-04-04T07:55:03;4.63;;;3.25;;
64029;SDS011;50277;52.064;4.492;2023-04-04T07:57:32;4.18;;;3.08;;
64029;SDS011;50277;52.064;4.492;2023-04-04T08:00:01;6.18;;;3.65;;
64029;SDS011;50277;52.064;4.492;2023-04-04T08:02:29;6.50;;;3.38;;
64029;SDS011;50277;52.064;4.492;2023-04-04T08:04:54;6.63;;;3.50;;
64029;SDS011;50277;52.064;4.492;2023-04-04T08:07:20;7.85;;;3.53;;
64029;SDS011;50277;52.064;4.492;2023-04-04T08:09:45;4.97;;;3.53;;
64029;SDS011;50277;52.064;4.492;2023-04-04T08:12:10;4.05;;;3.40;;
64029;SDS011;50277;52.064;4.492;2023-04-04T08:14:36;4.45;;;3.17;;
64029;SDS011;50277;52.064;4.492;2023-04-04T08:17:01;6.43;;;3.13;;
64029;SDS011;50277;52.064;4.492;2023-04-04T08:19:27;5.13;;;3.47;;
64029;SDS011;50277;52.064;4.492;2023-04-04T08:21:52;6.70;;;3.70;;
64029;SDS011;50277;52.064;4.492;2023-04-04T08:24:17;4.38;;;2.92;;
64029;SDS011;50277;52.064;4.492;2023-04-04T08:26:43;5.50;;;3.10;;
64029;SDS011;50277;52.064;4.492;2023-04-04T08:29:08;4.68;;;3.38;;
64029;SDS011;50277;52.064;4.492;2023-04-04T08:31:34;5.25;;;3.08;;
64029;SDS011;50277;52.064;4.492;2023-04-04T08:33:59;5.25;;;3.17;;
64029;SDS011;50277;52.064;4.492;2023-04-04T08:36:26;5.32;;;3.58;;
64029;SDS011;50277;52.064;4.492;2023-04-04T08:38:52;4.07;;;3.05;;
64029;SDS011;50277;52.064;4.492;2023-04-04T08:41:17;5.65;;;3.20;;
64029;SDS011;50277;52.064;4.492;2023-04-04T08:43:43;4.82;;;3.20;;
64029;SDS011;50277;52.064;4.492;2023-04-04T08:46:18;4.97;;;3.28;;
64029;SDS011;50277;52.064;4.492;2023-04-04T08:48:45;7.15;;;3.53;;
64029;SDS011;50277;52.064;4.492;2023-04-04T08:51:11;5.88;;;2.88;;
64029;SDS011;50277;52.064;4.492;2023-04-04T08:53:38;6.97;;;3.28;;
64029;SDS011;50277;52.064;4.492;2023-04-04T08:56:03;4.10;;;3.05;;
64029;SDS011;50277;52.064;4.492;2023-04-04T08:58:29;3.88;;;3.10;;
64029;SDS011;50277;52.064;4.492;2023-04-04T09:00:54;3.78;;;3.00;;
64029;SDS011;50277;52.064;4.492;2023-04-04T09:03:24;5.93;;;3.03;;
64029;SDS011;50277;52.064;4.492;2023-04-04T09:05:52;10.48;;;4.10;;
64029;SDS011;50277;52.064;4.492;2023-04-04T09:08:18;4.18;;;2.97;;
64029;SDS011;50277;52.064;4.492;2023-04-04T09:10:44;4.40;;;2.85;;
64029;SDS011;50277;52.064;4.492;2023-04-04T09:13:09;5.57;;;3.20;;
64029;SDS011;50277;52.064;4.492;2023-04-04T09:15:35;4.57;;;3.25;;
64029;SDS011;50277;52.064;4.492;2023-04-04T09:18:02;4.35;;;2.70;;
64029;SDS011;50277;52.064;4.492;2023-04-04T09:23:05;3.53;;;2.40;;
64029;SDS011;50277;52.064;4.492;2023-04-04T09:25:32;3.60;;;2.47;;
64029;SDS011;50277;52.064;4.492;2023-04-04T09:27:57;3.85;;;2.45;;
64029;SDS011;50277;52.064;4.492;2023-04-04T09:30:23;4.38;;;2.75;;
64029;SDS011;50277;52.064;4.492;2023-04-04T09:32:49;3.53;;;2.80;;
64029;SDS011;50277;52.064;4.492;2023-04-04T09:35:15;2.67;;;2.40;;
64029;SDS011;50277;52.064;4.492;2023-04-04T09:37:40;7.28;;;2.88;;
64029;SDS011;50277;52.064;4.492;2023-04-04T09:40:08;7.75;;;2.78;;
64029;SDS011;50277;52.064;4.492;2023-04-04T09:42:33;3.53;;;2.40;;
64029;SDS011;50277;52.064;4.492;2023-04-04T09:44:59;3.58;;;2.42;;
64029;SDS011;50277;52.064;4.492;2023-04-04T09:47:26;3.80;;;2.28;;
64029;SDS011;50277;52.064;4.492;2023-04-04T09:49:52;6.95;;;2.63;;
64029;SDS011;50277;52.064;4.492;2023-04-04T09:52:21;3.67;;;2.80;;
64029;SDS011;50277;52.064;4.492;2023-04-04T09:54:59;5.35;;;3.00;;
64029;SDS011;50277;52.064;4.492;2023-04-04T09:57:27;2.78;;;2.35;;
64029;SDS011;50277;52.064;4.492;2023-04-04T10:00:00;6.45;;;2.78;;
64029;SDS011;50277;52.064;4.492;2023-04-04T10:02:27;6.20;;;2.90;;
64029;SDS011;50277;52.064;4.492;2023-04-04T10:04:54;6.53;;;3.13;;
64029;SDS011;50277;52.064;4.492;2023-04-04T10:07:21;4.97;;;2.77;;
64029;SDS011;50277;52.064;4.492;2023-04-04T10:09:48;5.18;;;2.67;;
64029;SDS011;50277;52.064;4.492;2023-04-04T10:12:16;2.65;;;2.20;;
64029;SDS011;50277;52.064;4.492;2023-04-04T10:14:46;4.93;;;2.55;;
64029;SDS011;50277;52.064;4.492;2023-04-04T10:17:11;3.97;;;2.85;;
64029;SDS011;50277;52.064;4.492;2023-04-04T10:19:37;4.47;;;2.72;;
64029;SDS011;50277;52.064;4.492;2023-04-04T10:22:04;3.47;;;2.58;;
64029;SDS011;50277;52.064;4.492;2023-04-04T10:24:29;5.05;;;2.80;;
64029;SDS011;50277;52.064;4.492;2023-04-04T10:26:55;3.45;;;2.67;;
64029;SDS011;50277;52.064;4.492;2023-04-04T10:29:21;4.60;;;2.95;;
64029;SDS011;50277;52.064;4.492;2023-04-04T10:31:46;4.00;;;2.70;;
64029;SDS011;50277;52.064;4.492;2023-04-04T10:34:24;5.05;;;2.90;;
64029;SDS011;50277;52.064;4.492;2023-04-04T10:37:11;4.22;;;2.58;;
64029;SDS011;50277;52.064;4.492;2023-04-04T10:42:31;6.55;;;3.05;;
64029;SDS011;50277;52.064;4.492;2023-04-04T10:45:02;4.60;;;2.80;;
64029;SDS011;50277;52.064;4.492;2023-04-04T10:49:56;3.42;;;2.63;;
64029;SDS011;50277;52.064;4.492;2023-04-04T10:52:22;3.97;;;2.92;;
64029;SDS011;50277;52.064;4.492;2023-04-04T10:54:49;5.68;;;3.28;;
64029;SDS011;50277;52.064;4.492;2023-04-04T10:57:15;4.93;;;2.80;;
64029;SDS011;50277;52.064;4.492;2023-04-04T11:02:42;4.72;;;2.60;;
64029;SDS011;50277;52.064;4.492;2023-04-04T11:05:14;4.95;;;2.63;;
64029;SDS011;50277;52.064;4.492;2023-04-04T11:07:43;2.70;;;2.33;;
64029;SDS011;50277;52.064;4.492;2023-04-04T11:10:13;4.57;;;2.75;;
64029;SDS011;50277;52.064;4.492;2023-04-04T11:12:42;6.82;;;3.42;;
64029;SDS011;50277;52.064;4.492;2023-04-04T11:15:09;4.20;;;3.03;;
64029;SDS011;50277;52.064;4.492;2023-04-04T11:17:42;4.32;;;3.05;;
64029;SDS011;50277;52.064;4.492;2023-04-04T11:20:14;3.35;;;2.15;;
64029;SDS011;50277;52.064;4.492;2023-04-04T11:22:41;8.50;;;3.22;;
64029;SDS011;50277;52.064;4.492;2023-04-04T11:27:53;4.57;;;2.63;;
64029;SDS011;50277;52.064;4.492;2023-04-04T11:30:20;3.78;;;3.25;;
64029;SDS011;50277;52.064;4.492;2023-04-04T11:32:48;5.38;;;2.30;;
64029;SDS011;50277;52.064;4.492;2023-04-04T11:37:43;5.90;;;3.30;;
64029;SDS011;50277;52.064;4.492;2023-04-04T11:40:39;5.85;;;2.92;;
64029;SDS011;50277;52.064;4.492;2023-04-04T11:43:06;5.75;;;2.40;;
64029;SDS011;50277;52.064;4.492;2023-04-04T11:45:35;5.38;;;2.55;;
64029;SDS011;50277;52.064;4.492;2023-04-04T11:48:02;5.80;;;2.67;;
64029;SDS011;50277;52.064;4.492;2023-04-04T11:50:37;3.43;;;2.10;;
64029;SDS011;50277;52.064;4.492;2023-04-04T11:53:04;5.05;;;2.45;;
64029;SDS011;50277;52.064;4.492;2023-04-04T11:55:30;4.15;;;2.58;;
64029;SDS011;50277;52.064;4.492;2023-04-04T11:58:03;3.40;;;2.28;;
64029;SDS011;50277;52.064;4.492;2023-04-04T12:00:30;4.47;;;2.90;;
64029;SDS011;50277;52.064;4.492;2023-04-04T12:02:56;4.18;;;2.67;;
64029;SDS011;50277;52.064;4.492;2023-04-04T12:05:22;3.90;;;2.28;;
64029;SDS011;50277;52.064;4.492;2023-04-04T12:07:48;8.32;;;2.70;;
64029;SDS011;50277;52.064;4.492;2023-04-04T12:10:14;4.10;;;2.60;;
64029;SDS011;50277;52.064;4.492;2023-04-04T12:12:39;3.40;;;2.47;;
64029;SDS011;50277;52.064;4.492;2023-04-04T12:15:06;6.28;;;2.92;;
64029;SDS011;50277;52.064;4.492;2023-04-04T12:17:33;8.57;;;2.70;;
64029;SDS011;50277;52.064;4.492;2023-04-04T12:20:02;4.15;;;2.80;;
64029;SDS011;50277;52.064;4.492;2023-04-04T12:22:33;3.65;;;2.30;;
64029;SDS011;50277;52.064;4.492;2023-04-04T12:24:59;6.25;;;2.75;;
64029;SDS011;50277;52.064;4.492;2023-04-04T12:27:24;5.43;;;2.97;;
64029;SDS011;50277;52.064;4.492;2023-04-04T12:29:50;4.07;;;2.08;;
64029;SDS011;50277;52.064;4.492;2023-04-04T12:32:15;4.72;;;2.53;;
64029;SDS011;50277;52.064;4.492;2023-04-04T12:34:41;7.30;;;3.10;;
64029;SDS011;50277;52.064;4.492;2023-04-04T12:37:08;6.95;;;2.60;;
64029;SDS011;50277;52.064;4.492;2023-04-04T12:39:34;3.70;;;2.70;;
64029;SDS011;50277;52.064;4.492;2023-04-04T12:42:04;4.45;;;2.47;;
64029;SDS011;50277;52.064;4.492;2023-04-04T12:44:38;3.47;;;2.30;;
64029;SDS011;50277;52.064;4.492;2023-04-04T12:47:04;3.80;;;2.50;;
64029;SDS011;50277;52.064;4.492;2023-04-04T12:49:44;3.53;;;3.13;;
64029;SDS011;50277;52.064;4.492;2023-04-04T12:52:16;2.65;;;2.17;;
64029;SDS011;50277;52.064;4.492;2023-04-04T12:54:44;6.15;;;3.00;;
64029;SDS011;50277;52.064;4.492;2023-04-04T12:57:10;4.80;;;3.33;;
64029;SDS011;50277;52.064;4.492;2023-04-04T12:59:38;4.43;;;2.70;;
64029;SDS011;50277;52.064;4.492;2023-04-04T13:02:08;4.18;;;2.28;;
64029;SDS011;50277;52.064;4.492;2023-04-04T13:04:36;4.20;;;2.60;;
64029;SDS011;50277;52.064;4.492;2023-04-04T13:07:02;5.28;;;2.35;;
64029;SDS011;50277;52.064;4.492;2023-04-04T13:09:28;3.58;;;2.10;;
64029;SDS011;50277;52.064;4.492;2023-04-04T13:11:57;3.95;;;2.42;;
64029;SDS011;50277;52.064;4.492;2023-04-04T13:17:16;5.80;;;3.40;;
64029;SDS011;50277;52.064;4.492;2023-04-04T13:19:41;5.53;;;2.55;;
64029;SDS011;50277;52.064;4.492;2023-04-04T13:22:07;7.05;;;2.70;;
64029;SDS011;50277;52.064;4.492;2023-04-04T13:24:33;8.52;;;2.90;;
64029;SDS011;50277;52.064;4.492;2023-04-04T13:26:58;5.53;;;2.75;;
64029;SDS011;50277;52.064;4.492;2023-04-04T13:29:23;5.70;;;2.80;;
64029;SDS011;50277;52.064;4.492;2023-04-04T13:31:49;4.50;;;2.95;;
64029;SDS011;50277;52.064;4.492;2023-04-04T13:34:15;6.07;;;2.70;;
64029;SDS011;50277;52.064;4.492;2023-04-04T13:36:40;5.45;;;3.20;;
64029;SDS011;50277;52.064;4.492;2023-04-04T13:39:06;6.20;;;3.15;;
64029;SDS011;50277;52.064;4.492;2023-04-04T13:41:31;7.93;;;4.05;;
64029;SDS011;50277;52.064;4.492;2023-04-04T13:43:56;4.28;;;2.80;;
64029;SDS011;50277;52.064;4.492;2023-04-04T13:46:22;5.45;;;3.22;;
64029;SDS011;50277;52.064;4.492;2023-04-04T13:48:47;5.28;;;2.97;;
64029;SDS011;50277;52.064;4.492;2023-04-04T13:51:13;4.72;;;2.85;;
64029;SDS011;50277;52.064;4.492;2023-04-04T13:53:38;4.63;;;2.78;;
64029;SDS011;50277;52.064;4.492;2023-04-04T13:56:05;5.13;;;3.30;;
64029;SDS011;50277;52.064;4.492;2023-04-04T13:58:31;5.75;;;2.85;;
64029;SDS011;50277;52.064;4.492;2023-04-04T14:00:57;3.22;;;2.70;;
64029;SDS011;50277;52.064;4.492;2023-04-04T14:03:22;3.45;;;3.05;;
64029;SDS011;50277;52.064;4.492;2023-04-04T14:05:47;5.13;;;2.72;;
64029;SDS011;50277;52.064;4.492;2023-04-04T14:08:13;5.00;;;3.03;;
64029;SDS011;50277;52.064;4.492;2023-04-04T14:10:38;6.32;;;2.92;;
64029;SDS011;50277;52.064;4.492;2023-04-04T14:13:03;4.63;;;2.63;;
64029;SDS011;50277;52.064;4.492;2023-04-04T14:15:29;5.55;;;3.13;;
64029;SDS011;50277;52.064;4.492;2023-04-04T14:17:54;4.40;;;3.42;;
64029;SDS011;50277;52.064;4.492;2023-04-04T14:20:20;4.20;;;3.17;;
64029;SDS011;50277;52.064;4.492;2023-04-04T14:22:45;4.35;;;2.88;;
64029;SDS011;50277;52.064;4.492;2023-04-04T14:25:10;5.28;;;2.90;;
64029;SDS011;50277;52.064;4.492;2023-04-04T14:27:36;5.53;;;3.30;;
64029;SDS011;50277;52.064;4.492;2023-04-04T14:30:01;6.43;;;2.90;;
64029;SDS011;50277;52.064;4.492;2023-04-04T14:32:27;3.70;;;2.97;;
64029;SDS011;50277;52.064;4.492;2023-04-04T14:34:53;5.00;;;2.78;;
64029;SDS011;50277;52.064;4.492;2023-04-04T14:37:18;3.92;;;2.85;;
64029;SDS011;50277;52.064;4.492;2023-04-04T14:39:44;5.32;;;3.00;;
64029;SDS011;50277;52.064;4.492;2023-04-04T14:42:09;4.05;;;2.90;;
64029;SDS011;50277;52.064;4.492;2023-04-04T14:44:34;3.80;;;2.92;;
64029;SDS011;50277;52.064;4.492;2023-04-04T14:47:00;4.78;;;3.00;;
64029;SDS011;50277;52.064;4.492;2023-04-04T14:49:25;5.82;;;3.35;;
64029;SDS011;50277;52.064;4.492;2023-04-04T14:51:51;6.00;;;3.30;;
64029;SDS011;50277;52.064;4.492;2023-04-04T14:54:17;6.40;;;3.00;;
64029;SDS011;50277;52.064;4.492;2023-04-04T14:56:42;7.45;;;3.88;;
64029;SDS011;50277;52.064;4.492;2023-04-04T14:59:09;7.68;;;3.20;;
64029;SDS011;50277;52.064;4.492;2023-04-04T15:01:34;4.07;;;3.10;;
64029;SDS011;50277;52.064;4.492;2023-04-04T15:04:00;6.90;;;3.35;;
64029;SDS011;50277;52.064;4.492;2023-04-04T15:06:25;4.95;;;2.88;;